Milwaukee, Wisconsin
Traffic Map
Current Weather Conditions
Milwaukee, Wisconsin
Few Clouds
Few Clouds
30°
Feels Like: 30°
Wind Chill: 30° Ceiling: Unl
Heat Index: 30° Visibility: 10mi
Dew Point: 22° Wind: 0mph
Humidity: 72% Direction: ° ()
Pressure: 30.22in Gusts: 0mph
Raw Report DataKMKE 040752Z 00000KT 10SM FEW120 M01/M06 A3022 RMK AO2 SLP244 T10111056
Traffic Incident Summary
Active as of:
Severity:
Category:
InformationThere was an issue retrieving the traffic information for this location. Please try a different location or try again shortly.
Advertisements
Track Severe Weather on mobile